createdAt,value
2019-01-24T00:00:40.402Z,2.57
2019-01-24T00:06:35.423Z,3.34
2019-01-24T00:12:30.398Z,0.71
2019-01-24T00:18:25.428Z,1.05
2019-01-24T00:24:20.423Z,3.08
2019-01-24T00:30:15.408Z,1.78
2019-01-24T00:36:10.425Z,1.02
2019-01-24T00:42:05.423Z,0.8
2019-01-24T00:48:00.448Z,1.11
2019-01-24T00:53:55.434Z,0.54
2019-01-24T00:59:50.469Z,1.51
2019-01-24T01:05:45.471Z,1.47
2019-01-24T01:11:40.463Z,0.7
2019-01-24T01:17:35.496Z,1.17
2019-01-24T01:23:30.481Z,3.31
2019-01-24T01:29:25.462Z,1.56
2019-01-24T01:35:20.479Z,1.48
2019-01-24T01:41:15.460Z,1.98
2019-01-24T01:47:10.441Z,2.3
2019-01-24T01:53:05.451Z,2.7
2019-01-24T01:59:00.444Z,3.38
2019-01-24T02:04:55.471Z,3.49
2019-01-24T02:10:50.458Z,1.9
2019-01-24T02:16:45.510Z,1.37
2019-01-24T02:22:40.484Z,1.43
2019-01-24T02:28:35.474Z,0.93
2019-01-24T02:34:30.472Z,1.29
2019-01-24T02:40:25.562Z,0.78
2019-01-24T02:46:20.482Z,0.7
2019-01-24T02:52:15.486Z,1.18
2019-01-24T02:58:10.490Z,1.36
2019-01-24T03:04:05.494Z,1.49
2019-01-24T03:10:00.529Z,1.32
2019-01-24T03:15:55.511Z,1.76
2019-01-24T03:21:50.541Z,1.59
2019-01-24T03:27:45.528Z,0.96
2019-01-24T03:33:40.535Z,1.1
2019-01-24T03:39:35.510Z,0.92
2019-01-24T03:45:30.508Z,1.68
2019-01-24T03:51:25.511Z,1.6
2019-01-24T03:57:20.533Z,1.1
2019-01-24T04:03:15.519Z,0.96
2019-01-24T04:09:10.527Z,1.05
2019-01-24T04:15:05.552Z,1.26
2019-01-24T04:21:00.524Z,1.01
2019-01-24T04:26:55.586Z,1.4
2019-01-24T04:32:50.544Z,1.68
2019-01-24T04:38:45.547Z,1.09
2019-01-24T04:44:40.568Z,1.14
2019-01-24T04:50:35.542Z,1.41
2019-01-24T04:56:30.538Z,1.75
2019-01-24T05:02:25.552Z,1.8
2019-01-24T05:08:20.566Z,1.86
2019-01-24T05:14:15.560Z,1.8
2019-01-24T05:20:10.569Z,1.71
2019-01-24T05:26:05.582Z,1.83
2019-01-24T05:32:00.607Z,1.8
2019-01-24T05:37:55.580Z,1.88
2019-01-24T05:43:50.574Z,2
2019-01-24T05:49:45.560Z,2.05
2019-01-24T05:55:40.569Z,1.67
2019-01-24T06:01:35.601Z,1.92
2019-01-24T06:07:30.617Z,1.93
2019-01-24T06:13:25.647Z,1.83
2019-01-24T06:19:20.600Z,2.04
2019-01-24T06:25:15.610Z,1.99
2019-01-24T06:31:10.589Z,2
2019-01-24T06:37:05.612Z,2.27
2019-01-24T06:43:00.616Z,2.11
2019-01-24T06:48:55.593Z,2.18
2019-01-24T06:54:50.614Z,2.03
2019-01-24T07:00:45.631Z,2.73
2019-01-24T07:06:40.608Z,2.75
2019-01-24T07:12:35.639Z,2.35
2019-01-24T07:18:30.606Z,2.44
2019-01-24T07:24:25.615Z,2.4
2019-01-24T07:30:20.639Z,3.23
2019-01-24T07:36:15.641Z,2.91
2019-01-24T07:42:10.631Z,3.34
2019-01-24T07:48:05.647Z,2.5
2019-01-24T07:54:00.620Z,3.25
2019-01-24T07:59:55.652Z,3.24
2019-01-24T08:05:50.697Z,3.27
2019-01-24T08:11:45.680Z,3.37
2019-01-24T08:17:40.694Z,3.66
2019-01-24T08:23:35.690Z,3.82
2019-01-24T08:29:30.641Z,3.63
2019-01-24T08:35:25.686Z,4.23
2019-01-24T08:41:20.685Z,4.16
2019-01-24T08:47:15.674Z,3.81
2019-01-24T08:53:10.706Z,4.54
2019-01-24T08:59:05.660Z,5.31
2019-01-24T09:05:00.662Z,5.77
2019-01-24T09:10:55.707Z,4.98
2019-01-24T09:16:50.690Z,5.97
2019-01-24T09:22:45.694Z,6.15
2019-01-24T09:28:40.694Z,4.95
2019-01-24T09:34:35.682Z,5.1
2019-01-24T09:40:30.695Z,4.95
2019-01-24T09:46:25.712Z,5.05
2019-01-24T09:52:20.691Z,4.9
2019-01-24T09:58:15.686Z,3.95
2019-01-24T10:04:10.706Z,4.99
2019-01-24T10:10:05.699Z,5.3
2019-01-24T10:16:00.756Z,4.63
2019-01-24T10:21:55.713Z,5.51
2019-01-24T10:27:50.718Z,5.33
2019-01-24T10:33:45.700Z,5.49
2019-01-24T10:39:40.745Z,4.81
2019-01-24T10:45:35.752Z,5.46
2019-01-24T10:51:30.744Z,5.97
2019-01-24T10:57:25.767Z,5.15
2019-01-24T11:03:20.758Z,4.68
2019-01-24T11:09:15.713Z,6.36
2019-01-24T11:15:10.720Z,6.38
2019-01-24T11:21:05.796Z,5.69
2019-01-24T11:27:00.757Z,8.43
2019-01-24T11:32:55.734Z,10.64
2019-01-24T11:38:50.747Z,7.05
2019-01-24T11:44:45.783Z,6.71
2019-01-24T11:50:40.777Z,6.03
2019-01-24T11:56:35.775Z,6.36
2019-01-24T12:02:30.767Z,6.5
2019-01-24T12:08:25.816Z,5.58
2019-01-24T12:14:20.800Z,6.64
2019-01-24T12:20:15.793Z,6.57
2019-01-24T12:26:10.810Z,6.97
2019-01-24T12:32:05.808Z,7.14
2019-01-24T12:38:00.816Z,7.62
2019-01-24T12:43:55.771Z,7.49
2019-01-24T12:49:50.828Z,7.7
2019-01-24T12:55:45.803Z,6.94
2019-01-24T13:01:40.784Z,6.48
2019-01-24T13:07:35.802Z,6.57
2019-01-24T13:13:30.820Z,5.98
2019-01-24T13:19:25.806Z,7.73
2019-01-24T13:25:20.820Z,6.13
2019-01-24T13:31:15.824Z,7.26
2019-01-24T13:37:10.812Z,6.66
2019-01-24T13:43:05.834Z,8.26
2019-01-24T13:49:00.830Z,7.61
2019-01-24T13:54:55.873Z,8.21
2019-01-24T14:00:50.807Z,7.12
2019-01-24T14:06:45.859Z,8.31
2019-01-24T14:12:40.848Z,7.4
2019-01-24T14:18:35.843Z,7.89
2019-01-24T14:24:30.837Z,6.78
2019-01-24T14:30:25.866Z,8.98
2019-01-24T14:36:25.222Z,7.9
2019-01-24T14:42:15.952Z,6.33
2019-01-24T14:48:10.882Z,7.61
2019-01-24T14:54:05.849Z,6.41
2019-01-24T15:00:00.863Z,6.99
2019-01-24T15:05:55.859Z,6.49
2019-01-24T15:11:50.856Z,6.53
2019-01-24T15:17:45.875Z,6.14
2019-01-24T15:23:40.871Z,7.42
2019-01-24T15:29:35.947Z,5.9
2019-01-24T15:35:30.869Z,6.27
2019-01-24T15:41:25.927Z,5.77
2019-01-24T15:47:20.910Z,6.1
2019-01-24T15:53:15.932Z,5.84
2019-01-24T15:59:10.866Z,7.37
2019-01-24T16:05:05.947Z,7.98
2019-01-24T16:11:00.892Z,5.86
2019-01-24T16:16:55.882Z,5.28
2019-01-24T16:22:50.902Z,5.65
2019-01-24T16:28:45.939Z,7.09
2019-01-24T16:34:40.923Z,6.92
2019-01-24T16:40:35.897Z,4.69
2019-01-24T16:46:30.948Z,4.98
2019-01-24T16:52:25.969Z,5.23
2019-01-24T16:58:20.935Z,5.39
2019-01-24T17:04:15.919Z,7.94
2019-01-24T17:10:10.936Z,7.04
2019-01-24T17:16:05.931Z,5.97
2019-01-24T17:22:00.963Z,6.02
2019-01-24T17:27:55.958Z,7.04
2019-01-24T17:33:50.995Z,7.5
2019-01-24T17:39:45.962Z,11.37
2019-01-24T17:45:40.937Z,7.7
2019-01-24T17:51:35.940Z,8.81
2019-01-24T17:57:31.009Z,7.4
2019-01-24T18:03:25.948Z,8.18
2019-01-24T18:09:20.958Z,7.94
2019-01-24T18:15:15.940Z,6.82
2019-01-24T18:21:10.988Z,7.28
2019-01-24T18:27:06.041Z,8.94
2019-01-24T18:33:00.956Z,9.01
2019-01-24T18:38:55.982Z,8.31
2019-01-24T18:44:50.970Z,7.59
2019-01-24T18:50:46.000Z,6.37
2019-01-24T18:56:40.993Z,7.2
2019-01-24T19:02:35.982Z,6.32
2019-01-24T19:08:30.971Z,7.47
2019-01-24T19:14:26.032Z,6.07
2019-01-24T19:20:20.999Z,6.67
2019-01-24T19:26:16.024Z,7.76
2019-01-24T19:32:10.995Z,7.21
2019-01-24T19:38:05.984Z,7.18
2019-01-24T19:44:01.038Z,10.78
2019-01-24T19:49:56.023Z,8.58
2019-01-24T19:55:51.049Z,6.73
2019-01-24T20:01:46.016Z,4.33
2019-01-24T20:07:41.009Z,6.48
2019-01-24T20:13:36.031Z,7.59
2019-01-24T20:19:31.046Z,6.09
2019-01-24T20:25:26.024Z,6.83
2019-01-24T20:31:21.053Z,8.11
2019-01-24T20:37:16.059Z,6.29
2019-01-24T20:43:11.034Z,6.12
2019-01-24T20:49:06.028Z,5.63
2019-01-24T20:55:01.035Z,5.66
2019-01-24T21:00:56.041Z,5.6
2019-01-24T21:06:51.040Z,6.5
2019-01-24T21:12:46.033Z,6.07
2019-01-24T21:18:41.058Z,6.34
2019-01-24T21:24:36.074Z,6.55
2019-01-24T21:30:31.050Z,5.99
2019-01-24T21:36:26.065Z,6.27
2019-01-24T21:42:21.086Z,7.12
2019-01-24T21:48:16.082Z,7.79
2019-01-24T21:54:11.043Z,7.7
2019-01-24T22:00:06.062Z,7.06
2019-01-24T22:06:01.134Z,8.28
2019-01-24T22:11:56.072Z,8.32
2019-01-24T22:17:51.090Z,8.05
2019-01-24T22:23:46.065Z,8.01
2019-01-24T22:29:41.078Z,8.3
2019-01-24T22:35:36.093Z,9.15
2019-01-24T22:41:31.082Z,8.2
2019-01-24T22:47:26.109Z,8.01
2019-01-24T22:53:21.112Z,9.5
2019-01-24T22:59:16.115Z,8.95
2019-01-24T23:05:11.095Z,10.17
2019-01-24T23:11:06.108Z,10.51
2019-01-24T23:17:01.127Z,9.58
2019-01-24T23:22:56.123Z,10.05
2019-01-24T23:28:51.168Z,10.63
2019-01-24T23:34:46.126Z,10.41
2019-01-24T23:40:41.141Z,9.86
2019-01-24T23:46:36.145Z,10.66
2019-01-24T23:52:31.201Z,10.96
2019-01-24T23:58:26.148Z,11.72
